Terminal Aerodrome Forecast
Issued by NWS Bismarck, ND

Home | Current Version | Previous Version | Graphics & Text | Print | Product List | Glossary On
Versions: 1 2 3 4 5 6 7 8 9 10 11 12 13 14 15 16 17
973
FTUS43 KBIS 190535
TAFBIS
TAF
KBIS 190535Z 1906/2006 36009KT P6SM OVC090
     FM191200 36005KT P6SM OVC110
     FM191700 02007KT 4SM BR VCSH OVC030
     FM192100 02007KT 1 1/2SM -SN OVC025
     FM200000 02007KT P6SM OVC015=

USA.gov is the U.S. government's official web portal to all federal, state and local government web resources and services.